createdAt,value
2019-02-02T00:00:39.911Z,4.90
2019-02-02T00:05:35.478Z,4.90
2019-02-02T00:10:30.766Z,5.00
2019-02-02T00:15:25.504Z,4.90
2019-02-02T00:20:20.563Z,5.00
2019-02-02T00:25:15.375Z,4.90
2019-02-02T00:30:15.680Z,4.90
2019-02-02T00:35:11.643Z,4.80
2019-02-02T00:40:16.511Z,4.80
2019-02-02T00:45:23.397Z,4.90
2019-02-02T00:50:38.691Z,4.80
2019-02-02T00:55:32.491Z,4.70
2019-02-02T01:00:28.299Z,4.70
2019-02-02T01:05:23.643Z,4.70
2019-02-02T01:10:21.603Z,4.80
2019-02-02T01:15:17.508Z,4.80
2019-02-02T01:20:13.243Z,4.80
2019-02-02T01:25:15.910Z,4.80
2019-02-02T01:30:14.376Z,4.80
2019-02-02T01:35:17.341Z,4.80
2019-02-02T01:40:14.928Z,4.80
2019-02-02T01:45:12.218Z,4.80
2019-02-02T01:50:09.766Z,4.70
2019-02-02T01:55:08.726Z,4.70
2019-02-02T02:00:03.384Z,4.70
2019-02-02T02:04:58.501Z,4.70
2019-02-02T02:09:56.929Z,4.70
2019-02-02T02:14:52.990Z,4.70
2019-02-02T02:19:51.435Z,4.70
2019-02-02T02:24:45.747Z,4.70
2019-02-02T02:29:40.863Z,4.70
2019-02-02T02:34:36.311Z,4.60
2019-02-02T02:39:30.680Z,4.60
2019-02-02T02:44:24.976Z,4.60
2019-02-02T02:49:20.118Z,4.60
2019-02-02T02:54:15.623Z,4.70
2019-02-02T02:59:12.145Z,4.60
2019-02-02T03:04:07.259Z,4.60
2019-02-02T03:09:06.971Z,4.60
2019-02-02T03:14:01.120Z,4.50
2019-02-02T03:18:55.824Z,4.60
2019-02-02T03:23:52.356Z,4.60
2019-02-02T03:28:53.610Z,4.60
2019-02-02T03:33:43.227Z,4.60
2019-02-02T03:38:38.379Z,4.60
2019-02-02T03:43:32.030Z,4.50
2019-02-02T03:48:28.998Z,4.50
2019-02-02T03:53:23.199Z,4.40
2019-02-02T03:58:17.903Z,4.50
2019-02-02T04:03:12.306Z,4.40
2019-02-02T04:08:06.837Z,4.50
2019-02-02T04:13:01.200Z,4.50
2019-02-02T04:17:56.128Z,4.50
2019-02-02T04:22:52.320Z,4.40
2019-02-02T04:27:50.214Z,4.50
2019-02-02T04:32:44.783Z,4.40
2019-02-02T04:37:39.050Z,4.30
2019-02-02T04:42:33.680Z,4.40
2019-02-02T04:47:28.061Z,4.50
2019-02-02T04:52:22.641Z,4.50
2019-02-02T04:57:18.541Z,4.60
2019-02-02T05:02:14.245Z,4.60
2019-02-02T05:07:09.146Z,4.70
2019-02-02T05:12:06.700Z,4.60
2019-02-02T05:17:03.517Z,4.60
2019-02-02T05:21:57.376Z,4.50
2019-02-02T05:26:51.783Z,4.50
2019-02-02T05:31:45.595Z,4.50
2019-02-02T05:36:41.829Z,4.50
2019-02-02T05:41:36.002Z,4.50
2019-02-02T05:46:30.984Z,4.50
2019-02-02T05:51:25.271Z,4.50
2019-02-02T05:56:19.328Z,4.40
2019-02-02T06:01:15.152Z,4.40
2019-02-02T06:06:09.715Z,4.30
2019-02-02T06:11:05.397Z,4.30
2019-02-02T06:16:00.715Z,4.30
2019-02-02T06:20:55.668Z,4.30
2019-02-02T06:25:50.461Z,4.30
2019-02-02T06:30:46.073Z,4.40
2019-02-02T06:35:41.098Z,4.40
2019-02-02T06:40:35.930Z,4.40
2019-02-02T06:45:35.016Z,4.40
2019-02-02T06:50:30.453Z,4.50
2019-02-02T06:55:26.162Z,4.50
2019-02-02T07:00:26.222Z,4.50
2019-02-02T07:05:21.003Z,4.50
2019-02-02T07:10:21.109Z,4.50
2019-02-02T07:15:17.741Z,4.50
2019-02-02T07:20:14.390Z,4.50
2019-02-02T07:25:12.348Z,4.60
2019-02-02T07:30:09.915Z,4.70
2019-02-02T07:35:04.885Z,4.70
2019-02-02T07:40:00.818Z,4.80
2019-02-02T07:44:57.916Z,4.80
2019-02-02T07:49:51.719Z,4.80
2019-02-02T07:54:47.872Z,4.90
2019-02-02T07:59:44.204Z,4.80
2019-02-02T08:04:38.314Z,4.90
2019-02-02T08:09:32.905Z,4.90
2019-02-02T08:14:28.651Z,4.90
2019-02-02T08:19:25.708Z,5.00
2019-02-02T08:24:20.476Z,5.00
2019-02-02T08:29:15.550Z,5.10
2019-02-02T08:34:09.625Z,5.10
2019-02-02T08:39:04.715Z,5.10
2019-02-02T08:43:59.769Z,5.10
2019-02-02T08:48:55.524Z,5.20
2019-02-02T08:53:52.545Z,5.30
2019-02-02T08:58:48.179Z,5.30
2019-02-02T09:03:42.945Z,5.30
2019-02-02T09:08:38.361Z,5.30
2019-02-02T09:13:36.754Z,5.30
2019-02-02T09:18:32.618Z,5.40
2019-02-02T09:23:27.749Z,5.60
2019-02-02T09:28:22.584Z,5.60
2019-02-02T09:33:17.576Z,5.70
2019-02-02T09:38:12.947Z,5.70
2019-02-02T09:43:08.472Z,5.80
2019-02-02T09:48:03.143Z,5.80
2019-02-02T09:52:58.730Z,5.60
2019-02-02T09:57:55.563Z,5.80
2019-02-02T10:02:51.282Z,5.90
2019-02-02T10:07:45.888Z,5.90
2019-02-02T10:12:40.628Z,5.90
2019-02-02T10:17:36.234Z,5.90
2019-02-02T10:22:31.966Z,6.00
2019-02-02T10:27:26.663Z,6.10
2019-02-02T10:32:21.969Z,6.20
2019-02-02T10:37:16.784Z,6.10
2019-02-02T10:42:11.520Z,6.10
2019-02-02T10:47:06.427Z,6.10
2019-02-02T10:52:03.381Z,6.00
2019-02-02T10:56:58.520Z,6.00
2019-02-02T11:01:53.912Z,6.00
2019-02-02T11:06:52.926Z,6.00
2019-02-02T11:11:48.347Z,6.10
2019-02-02T11:16:43.386Z,6.00
2019-02-02T11:21:40.432Z,6.10
2019-02-02T11:26:36.149Z,6.10
2019-02-02T11:31:32.121Z,6.10
2019-02-02T11:36:27.079Z,6.10
2019-02-02T11:41:21.502Z,6.10
2019-02-02T11:46:17.666Z,6.10
2019-02-02T11:51:13.564Z,6.20
2019-02-02T11:56:07.901Z,6.00
2019-02-02T12:01:19.667Z,5.80
2019-02-02T12:06:15.294Z,5.80
2019-02-02T12:11:10.994Z,5.70
2019-02-02T12:16:08.901Z,5.60
2019-02-02T12:21:09.742Z,5.60
2019-02-02T12:26:08.274Z,5.60
2019-02-02T12:31:06.733Z,5.60
2019-02-02T12:36:05.460Z,5.60
2019-02-02T12:40:59.927Z,5.70
2019-02-02T12:45:57.216Z,5.70
2019-02-02T12:50:51.806Z,5.70
2019-02-02T12:55:47.591Z,5.60
2019-02-02T13:00:44.276Z,5.70
2019-02-02T13:05:39.482Z,5.70
2019-02-02T13:10:34.127Z,5.70
2019-02-02T13:15:31.224Z,5.60
2019-02-02T13:20:25.635Z,5.50
2019-02-02T13:25:24.661Z,5.50
2019-02-02T13:30:33.437Z,5.40
2019-02-02T13:35:29.297Z,5.50
2019-02-02T13:40:24.683Z,5.60
2019-02-02T13:45:21.237Z,5.80
2019-02-02T13:50:19.143Z,5.90
2019-02-02T13:55:15.533Z,5.80
2019-02-02T14:00:16.801Z,5.80
2019-02-02T14:05:15.283Z,6.00
2019-02-02T14:10:23.566Z,6.10
2019-02-02T14:15:29.145Z,6.00
2019-02-02T14:20:46.504Z,6.10
2019-02-02T14:25:41.734Z,6.20
2019-02-02T14:30:37.514Z,6.20
2019-02-02T14:35:32.491Z,6.10
2019-02-02T14:40:26.746Z,6.00
2019-02-02T14:45:28.083Z,6.00
2019-02-02T14:50:22.421Z,5.80
2019-02-02T14:55:19.000Z,5.60
2019-02-02T15:00:17.887Z,5.50
2019-02-02T15:05:13.743Z,5.40
2019-02-02T15:10:11.878Z,5.30
2019-02-02T15:15:11.871Z,5.40
2019-02-02T15:20:18.649Z,5.50
2019-02-02T15:25:17.341Z,5.30
2019-02-02T15:30:18.186Z,5.10
2019-02-02T15:35:14.341Z,5.00
2019-02-02T15:40:31.749Z,4.80
2019-02-02T15:45:32.791Z,4.70
2019-02-02T15:50:27.238Z,4.60
2019-02-02T15:55:24.389Z,4.60
2019-02-02T16:00:37.590Z,4.40
2019-02-02T16:05:32.582Z,4.30
2019-02-02T16:10:33.998Z,4.20
2019-02-02T16:15:30.188Z,4.30
2019-02-02T16:20:30.602Z,4.40
2019-02-02T16:25:25.212Z,4.50
2019-02-02T16:30:24.195Z,4.60
2019-02-02T16:35:21.903Z,4.60
2019-02-02T16:40:18.751Z,4.70
2019-02-02T16:45:15.923Z,4.70
2019-02-02T16:50:15.000Z,4.80
2019-02-02T16:55:12.485Z,4.80
2019-02-02T17:00:13.973Z,4.90
2019-02-02T17:05:10.323Z,4.90
2019-02-02T17:10:07.740Z,4.90
2019-02-02T17:15:03.089Z,4.90
2019-02-02T17:20:00.036Z,4.90
2019-02-02T17:24:55.008Z,4.90
2019-02-02T17:29:50.520Z,4.90
2019-02-02T17:34:47.511Z,4.90
2019-02-02T17:39:43.667Z,4.90
2019-02-02T17:44:37.626Z,4.90
2019-02-02T17:49:32.965Z,4.90
2019-02-02T17:54:27.652Z,4.90
2019-02-02T17:59:24.091Z,4.90
2019-02-02T18:04:21.278Z,4.90
2019-02-02T18:09:16.621Z,4.90
2019-02-02T18:14:12.892Z,4.90
2019-02-02T18:19:08.527Z,4.90
2019-02-02T18:24:02.872Z,4.90
2019-02-02T18:28:58.849Z,4.90
2019-02-02T18:33:54.013Z,4.90
2019-02-02T18:38:50.479Z,4.90
2019-02-02T18:43:45.961Z,4.90
2019-02-02T18:48:42.070Z,4.90
2019-02-02T18:53:40.861Z,4.90
2019-02-02T18:58:37.086Z,5.00
2019-02-02T19:03:32.962Z,5.00
2019-02-02T19:08:27.935Z,5.00
2019-02-02T19:13:22.796Z,5.10
2019-02-02T19:18:18.307Z,5.10
2019-02-02T19:23:24.320Z,5.00
2019-02-02T19:28:10.171Z,5.10
2019-02-02T19:33:08.536Z,5.10
2019-02-02T19:38:05.029Z,5.00
2019-02-02T19:43:00.998Z,5.00
2019-02-02T19:47:55.971Z,5.00
2019-02-02T19:52:50.644Z,4.90
2019-02-02T19:57:45.169Z,4.90
2019-02-02T20:02:40.964Z,4.90
2019-02-02T20:07:35.231Z,4.80
2019-02-02T20:12:31.148Z,4.80
2019-02-02T20:17:26.998Z,4.70
2019-02-02T20:22:21.281Z,4.70
2019-02-02T20:27:18.398Z,4.70
2019-02-02T20:32:15.144Z,4.70
2019-02-02T20:37:11.346Z,4.70
2019-02-02T20:42:12.202Z,4.70
2019-02-02T20:47:09.177Z,4.70
2019-02-02T20:52:08.078Z,4.70
2019-02-02T20:57:01.287Z,4.70
2019-02-02T21:02:01.821Z,4.70
2019-02-02T21:06:57.562Z,4.60
2019-02-02T21:11:57.196Z,4.60
2019-02-02T21:16:51.031Z,4.60
2019-02-02T21:21:48.063Z,4.50
2019-02-02T21:26:42.603Z,4.40
2019-02-02T21:31:37.557Z,4.50
2019-02-02T21:36:33.559Z,4.60
2019-02-02T21:41:30.074Z,4.40
2019-02-02T21:46:24.564Z,4.40
2019-02-02T21:51:21.781Z,4.30
2019-02-02T21:56:18.980Z,4.30
2019-02-02T22:01:23.678Z,4.20
2019-02-02T22:06:15.612Z,4.20
2019-02-02T22:11:10.547Z,4.20
2019-02-02T22:16:07.815Z,4.10
2019-02-02T22:21:05.942Z,4.10
2019-02-02T22:26:01.844Z,4.10
2019-02-02T22:31:00.167Z,4.10
2019-02-02T22:35:54.392Z,4.10
2019-02-02T22:40:48.278Z,4.10
2019-02-02T22:45:42.937Z,4.00
2019-02-02T22:50:39.029Z,4.00
2019-02-02T22:55:34.850Z,4.10
2019-02-02T23:00:52.608Z,4.20
2019-02-02T23:05:51.157Z,4.00
2019-02-02T23:10:51.328Z,4.00
2019-02-02T23:15:57.578Z,4.10
2019-02-02T23:20:51.578Z,4.10
2019-02-02T23:25:47.965Z,4.10
2019-02-02T23:30:43.003Z,4.20
2019-02-02T23:35:37.950Z,4.10
2019-02-02T23:40:33.248Z,4.10
2019-02-02T23:45:28.450Z,4.00
2019-02-02T23:50:33.162Z,4.00
2019-02-02T23:55:28.141Z,4.00
